createdAt,value
2022-12-27T00:01:31.797Z,102224.13
2022-12-27T00:03:58.310Z,102223.28
2022-12-27T00:06:26.692Z,102223.28
2022-12-27T00:08:53.302Z,102222.44
2022-12-27T00:11:23.466Z,102230.16
2022-12-27T00:13:50.384Z,102214.72
2022-12-27T00:16:21.055Z,102210.41
2022-12-27T00:18:49.423Z,102215.56
2022-12-27T00:21:17.400Z,102217.28
2022-12-27T00:23:48.656Z,102216.44
2022-12-27T00:26:21.318Z,102214.72
2022-12-27T00:28:47.780Z,102228.44
2022-12-27T00:31:14.970Z,102217.28
2022-12-27T00:33:43.079Z,102219.88
2022-12-27T00:36:13.796Z,102229.31
2022-12-27T00:38:40.702Z,102221.56
2022-12-27T00:41:07.530Z,102225.03
2022-12-27T00:43:34.990Z,102231.88
2022-12-27T00:46:02.144Z,102225.88
2022-12-27T00:48:28.637Z,102237.84
2022-12-27T00:51:00.714Z,102242.16
2022-12-27T00:53:28.957Z,102242.16
2022-12-27T00:55:56.161Z,102239.56
2022-12-27T00:58:22.678Z,102238.72
2022-12-27T01:00:50.105Z,102245.59
2022-12-27T01:03:17.856Z,102249.03
2022-12-27T01:05:44.359Z,102249.03
2022-12-27T01:08:11.394Z,102250.75
2022-12-27T01:10:40.576Z,102266.19
2022-12-27T01:13:07.763Z,102269.63
2022-12-27T01:15:34.272Z,102269.63
2022-12-27T01:18:00.720Z,102274.78
2022-12-27T01:20:27.142Z,102273.88
2022-12-27T01:22:54.538Z,102285.06
2022-12-27T01:25:21.090Z,102290.19
2022-12-27T01:27:47.517Z,102278.19
2022-12-27T01:30:13.971Z,102281.63
2022-12-27T01:32:40.378Z,102293.66
2022-12-27T01:35:07.073Z,102303.06
2022-12-27T01:37:33.527Z,102297.06
2022-12-27T01:40:00.043Z,102297.94
2022-12-27T01:42:46.490Z,102304.78
2022-12-27T01:45:34.973Z,102315.94
2022-12-27T01:48:14.313Z,102330.53
2022-12-27T01:50:45.361Z,102337.41
2022-12-27T01:53:32.154Z,102326.25
2022-12-27T01:56:09.449Z,102321.13
2022-12-27T01:58:46.627Z,102306.50
2022-12-27T02:01:17.609Z,102316.81
2022-12-27T02:03:48.346Z,102324.53
2022-12-27T02:06:16.143Z,102332.25
2022-12-27T02:08:51.970Z,102330.53
2022-12-27T02:11:41.895Z,102325.38
2022-12-27T02:14:09.942Z,102328.81
2022-12-27T02:16:36.435Z,102328.81
2022-12-27T02:19:06.329Z,102321.94
2022-12-27T02:21:45.243Z,102313.38
2022-12-27T02:24:20.376Z,102321.94
2022-12-27T02:26:51.992Z,102324.50
2022-12-27T02:29:22.467Z,102319.38
2022-12-27T02:32:04.248Z,102319.38
2022-12-27T02:34:39.768Z,102328.81
2022-12-27T02:37:11.272Z,102339.97
2022-12-27T02:39:43.391Z,102349.41
2022-12-27T02:42:30.254Z,102356.31
2022-12-27T02:45:15.389Z,102364.88
2022-12-27T02:48:02.738Z,102358.84
2022-12-27T02:51:17.285Z,102364.03
2022-12-27T02:53:58.611Z,102362.31
2022-12-27T02:56:57.702Z,102364.00
2022-12-27T02:59:59.089Z,102382.94
2022-12-27T03:03:04.871Z,102372.63
2022-12-27T03:05:46.251Z,102368.31
2022-12-27T03:08:30.293Z,102365.75
2022-12-27T03:11:19.112Z,102364.03
2022-12-27T03:14:13.069Z,102360.59
2022-12-27T03:16:55.662Z,102355.44
2022-12-27T03:19:49.424Z,102351.13
2022-12-27T03:22:37.159Z,102352.03
2022-12-27T03:25:23.126Z,102352.88
2022-12-27T03:28:11.975Z,102348.56
2022-12-27T03:30:59.029Z,102358.03
2022-12-27T03:33:27.845Z,102369.19
2022-12-27T03:36:15.389Z,102360.59
2022-12-27T03:38:56.800Z,102370.88
2022-12-27T03:41:48.356Z,102363.16
2022-12-27T03:44:25.137Z,102366.56
2022-12-27T03:46:58.138Z,102365.75
2022-12-27T03:49:33.013Z,102366.59
2022-12-27T03:52:36.231Z,102370.88
2022-12-27T03:55:03.045Z,102364.88
2022-12-27T03:57:29.761Z,102373.44
2022-12-27T03:59:56.315Z,102379.44
2022-12-27T04:02:23.109Z,102384.59
2022-12-27T04:04:50.095Z,102388.06
2022-12-27T04:07:16.692Z,102389.75
2022-12-27T04:10:01.937Z,102394.06
2022-12-27T04:12:46.889Z,102395.78
2022-12-27T04:15:32.115Z,102393.22
2022-12-27T04:18:17.017Z,102382.03
2022-12-27T04:21:01.706Z,102380.34
2022-12-27T04:23:46.589Z,102388.91
2022-12-27T04:26:31.542Z,102387.19
2022-12-27T04:29:16.357Z,102391.47
2022-12-27T04:32:01.237Z,102398.34
2022-12-27T04:34:42.849Z,102402.63
2022-12-27T04:37:19.733Z,102402.63
2022-12-27T04:40:10.178Z,102403.50
2022-12-27T04:42:54.905Z,102410.34
2022-12-27T04:45:40.343Z,102408.59
2022-12-27T04:48:31.302Z,102414.63
2022-12-27T04:51:16.772Z,102404.34
2022-12-27T04:54:01.542Z,102399.16
2022-12-27T04:56:27.948Z,102397.44
2022-12-27T04:59:12.675Z,102403.47
2022-12-27T05:01:58.136Z,102409.44
2022-12-27T05:04:25.448Z,102400.88
2022-12-27T05:06:51.965Z,102407.72
2022-12-27T05:09:37.113Z,102408.59
2022-12-27T05:12:22.572Z,102413.78
2022-12-27T05:14:49.001Z,102416.34
2022-12-27T05:17:15.493Z,102419.75
2022-12-27T05:19:41.924Z,102418.91
2022-12-27T05:22:26.706Z,102423.22
2022-12-27T05:25:11.559Z,102427.50
2022-12-27T05:27:37.970Z,102424.91
2022-12-27T05:30:04.818Z,102429.19
2022-12-27T05:32:31.222Z,102430.91
2022-12-27T05:34:57.641Z,102438.63
2022-12-27T05:37:24.026Z,102448.03
2022-12-27T05:39:50.457Z,102452.34
2022-12-27T05:42:16.904Z,102449.75
2022-12-27T05:44:43.322Z,102448.91
2022-12-27T05:47:09.816Z,102445.47
2022-12-27T05:49:36.266Z,102462.63
2022-12-27T05:52:02.749Z,102450.63
2022-12-27T05:54:29.178Z,102460.91
2022-12-27T05:56:55.553Z,102457.47
2022-12-27T05:59:21.973Z,102455.75
2022-12-27T06:01:48.535Z,102461.75
2022-12-27T06:04:15.009Z,102456.66
2022-12-27T06:06:41.395Z,102463.50
2022-12-27T06:09:07.879Z,102466.06
2022-12-27T06:11:34.287Z,102462.63
2022-12-27T06:14:00.677Z,102466.06
2022-12-27T06:16:27.248Z,102467.75
2022-12-27T06:18:53.740Z,102476.31
2022-12-27T06:21:21.347Z,102476.31
2022-12-27T06:23:48.571Z,102472.03
2022-12-27T06:26:18.103Z,102479.75
2022-12-27T06:28:44.508Z,102474.56
2022-12-27T06:31:11.584Z,102475.47
2022-12-27T06:33:38.332Z,102474.56
2022-12-27T06:36:10.113Z,102483.16
2022-12-27T06:38:36.639Z,102489.16
2022-12-27T06:41:05.004Z,102493.44
2022-12-27T06:43:31.589Z,102498.63
2022-12-27T06:46:00.010Z,102497.75
2022-12-27T06:48:27.018Z,102496.03
2022-12-27T06:50:54.108Z,102494.31
2022-12-27T06:53:21.308Z,102496.03
2022-12-27T06:55:48.322Z,102507.16
2022-12-27T06:58:15.053Z,102503.72
2022-12-27T07:00:42.412Z,102506.34
2022-12-27T07:03:08.987Z,102510.63
2022-12-27T07:05:36.556Z,102505.50
2022-12-27T07:08:03.224Z,102514.03
2022-12-27T07:10:29.833Z,102512.34
2022-12-27T07:12:56.939Z,102520.03
2022-12-27T07:15:24.007Z,102513.19
2022-12-27T07:17:50.654Z,102510.59
2022-12-27T07:20:17.220Z,102514.00
2022-12-27T07:22:43.609Z,102520.91
2022-12-27T07:25:10.051Z,102517.44
2022-12-27T07:27:37.414Z,102519.19
2022-12-27T07:30:05.142Z,102519.19
2022-12-27T07:32:31.865Z,102526.91
2022-12-27T07:34:58.315Z,102529.44
2022-12-27T07:37:24.720Z,102526.03
2022-12-27T07:39:51.196Z,102526.88
2022-12-27T07:42:17.674Z,102532.88
2022-12-27T07:44:44.149Z,102531.16
2022-12-27T07:47:10.588Z,102532.00
2022-12-27T07:49:37.012Z,102536.28
2022-12-27T07:52:03.518Z,102538.84
2022-12-27T07:54:30.043Z,102549.13
2022-12-27T07:56:56.444Z,102554.25
2022-12-27T07:59:22.914Z,102558.53
2022-12-27T08:02:04.430Z,102565.41
2022-12-27T08:04:32.778Z,102563.69
2022-12-27T08:07:19.640Z,102569.72
2022-12-27T08:09:47.457Z,102571.44
2022-12-27T08:12:15.026Z,102579.16
2022-12-27T08:14:41.961Z,102579.19
2022-12-27T08:17:21.101Z,102580.94
2022-12-27T08:19:48.409Z,102565.50
2022-12-27T08:22:15.345Z,102574.91
2022-12-27T08:24:42.135Z,102579.22
2022-12-27T08:27:08.702Z,102580.94
2022-12-27T08:29:35.294Z,102579.28
2022-12-27T08:32:01.921Z,102579.28
2022-12-27T08:34:28.367Z,102580.16
2022-12-27T08:36:56.152Z,102586.97
2022-12-27T08:39:23.223Z,102584.44
2022-12-27T08:41:49.741Z,102579.31
2022-12-27T08:44:16.180Z,102578.47
2022-12-27T08:46:42.616Z,102584.47
2022-12-27T08:49:09.059Z,102578.47
2022-12-27T08:51:40.889Z,102577.59
2022-12-27T08:54:08.129Z,102574.19
2022-12-27T08:56:34.555Z,102577.63
2022-12-27T08:59:01.266Z,102580.22
2022-12-27T09:01:27.877Z,102579.34
2022-12-27T09:03:54.445Z,102575.97
2022-12-27T09:06:22.981Z,102576.00
2022-12-27T09:08:51.291Z,102567.41
2022-12-27T09:11:24.390Z,102576.00
2022-12-27T09:13:50.935Z,102588.03
2022-12-27T09:16:20.745Z,102591.47
2022-12-27T09:18:50.736Z,102598.34
2022-12-27T09:21:18.417Z,102604.38
2022-12-27T09:23:46.057Z,102607.81
2022-12-27T09:26:15.291Z,102598.41
2022-12-27T09:28:42.140Z,102594.97
2022-12-27T09:31:10.207Z,102594.97
2022-12-27T09:33:37.422Z,102587.25
2022-12-27T09:36:10.373Z,102596.72
2022-12-27T09:38:37.160Z,102595.00
2022-12-27T09:44:26.463Z,102607.06
2022-12-27T09:47:02.612Z,102600.19
2022-12-27T09:49:41.354Z,102605.34
2022-12-27T09:52:12.658Z,102612.22
2022-12-27T09:54:57.866Z,102607.09
2022-12-27T09:57:33.378Z,102609.69
2022-12-27T10:00:05.230Z,102609.66
2022-12-27T10:02:34.916Z,102603.66
2022-12-27T10:07:55.219Z,102606.25
2022-12-27T10:10:40.350Z,102604.53
2022-12-27T10:13:28.225Z,102607.16
2022-12-27T10:16:16.224Z,102618.31
2022-12-27T10:18:47.402Z,102613.16
2022-12-27T10:21:24.713Z,102608.03
2022-12-27T10:24:34.135Z,102613.19
2022-12-27T10:27:00.966Z,102615.75
2022-12-27T10:29:28.835Z,102614.91
2022-12-27T10:31:55.290Z,102625.22
2022-12-27T10:34:24.624Z,102622.63
2022-12-27T10:36:53.227Z,102615.78
2022-12-27T10:39:30.973Z,102619.22
2022-12-27T10:42:08.321Z,102607.19
2022-12-27T10:44:34.844Z,102615.78
2022-12-27T10:47:01.914Z,102608.88
2022-12-27T10:49:31.491Z,102607.19
2022-12-27T10:52:10.950Z,102606.31
2022-12-27T10:54:51.161Z,102615.78
2022-12-27T10:57:29.723Z,102616.66
2022-12-27T11:00:17.654Z,102614.91
2022-12-27T11:02:55.456Z,102614.06
2022-12-27T11:05:30.442Z,102604.59
2022-12-27T11:07:57.380Z,102608.03
2022-12-27T11:10:26.595Z,102602.88
2022-12-27T11:12:57.845Z,102601.16
2022-12-27T11:15:25.544Z,102595.13
2022-12-27T11:18:01.933Z,102587.38
2022-12-27T11:20:37.741Z,102584.78
2022-12-27T11:23:10.265Z,102587.31
2022-12-27T11:25:57.992Z,102580.44
2022-12-27T11:28:40.571Z,102580.38
2022-12-27T11:31:10.109Z,102576.88
2022-12-27T11:33:41.174Z,102583.75
2022-12-27T11:36:11.006Z,102575.97
2022-12-27T11:38:39.786Z,102581.94
2022-12-27T11:41:08.291Z,102585.38
2022-12-27T11:43:50.073Z,102581.91
2022-12-27T11:46:30.909Z,102568.09
2022-12-27T11:48:58.767Z,102570.63
2022-12-27T11:51:50.960Z,102565.47
2022-12-27T11:54:38.378Z,102573.19
2022-12-27T11:57:13.840Z,102568.91
2022-12-27T11:59:55.528Z,102579.25
2022-12-27T12:03:09.687Z,102581.84
2022-12-27T12:05:41.672Z,102580.09
2022-12-27T12:08:21.158Z,102562.88
2022-12-27T12:11:11.579Z,102565.44
2022-12-27T12:14:00.110Z,102561.97
2022-12-27T12:16:29.502Z,102550.78
2022-12-27T12:19:07.759Z,102547.31
2022-12-27T12:21:48.679Z,102541.28
2022-12-27T12:24:33.934Z,102539.53
2022-12-27T12:27:25.186Z,102532.63
2022-12-27T12:30:04.922Z,102530.88
2022-12-27T12:32:43.251Z,102536.88
2022-12-27T12:35:40.320Z,102532.53
2022-12-27T12:38:23.221Z,102520.47
2022-12-27T12:40:55.370Z,102517.84
2022-12-27T12:43:40.542Z,102511.78
2022-12-27T12:46:13.014Z,102502.28
2022-12-27T12:49:03.448Z,102499.66
2022-12-27T12:51:57.904Z,102502.22
2022-12-27T12:54:36.467Z,102503.03
2022-12-27T12:57:23.205Z,102489.22
2022-12-27T13:00:12.593Z,102492.66
2022-12-27T13:02:57.600Z,102486.63
2022-12-27T13:05:34.451Z,102478.91
2022-12-27T13:08:13.167Z,102471.16
2022-12-27T13:10:45.930Z,102466.81
2022-12-27T13:13:19.025Z,102463.34
2022-12-27T13:16:12.136Z,102456.44
2022-12-27T13:18:51.760Z,102446.94
2022-12-27T13:21:56.054Z,102445.22
2022-12-27T13:24:36.790Z,102445.22
2022-12-27T13:27:09.614Z,102451.25
2022-12-27T13:30:06.452Z,102437.47
2022-12-27T13:33:07.183Z,102438.34
2022-12-27T13:35:40.380Z,102439.22
2022-12-27T13:38:33.736Z,102435.78
2022-12-27T13:41:30.070Z,102439.22
2022-12-27T13:44:06.407Z,102427.13
2022-12-27T13:46:38.198Z,102415.88
2022-12-27T13:49:30.411Z,102422.72
2022-12-27T13:52:12.157Z,102419.22
2022-12-27T13:55:16.016Z,102407.09
2022-12-27T13:58:13.820Z,102400.16
2022-12-27T14:01:19.515Z,102397.56
2022-12-27T14:04:06.166Z,102388.94
2022-12-27T14:06:48.643Z,102390.69
2022-12-27T14:09:39.395Z,102383.78
2022-12-27T14:12:42.514Z,102380.34
2022-12-27T14:15:18.107Z,102371.72
2022-12-27T14:18:03.013Z,102372.59
2022-12-27T14:20:56.535Z,102372.63
2022-12-27T14:24:00.307Z,102373.56
2022-12-27T14:26:57.856Z,102375.28
2022-12-27T14:29:52.705Z,102379.63
2022-12-27T14:32:19.089Z,102388.25
2022-12-27T14:35:25.016Z,102377.09
2022-12-27T14:38:11.839Z,102377.94
2022-12-27T14:41:09.017Z,102366.78
2022-12-27T14:43:53.763Z,102360.72
2022-12-27T14:46:51.400Z,102377.97
2022-12-27T14:49:49.206Z,102376.31
2022-12-27T14:52:53.403Z,102368.53
2022-12-27T14:55:44.742Z,102366.81
2022-12-27T14:58:47.141Z,102371.16
2022-12-27T15:01:46.365Z,102359.97
2022-12-27T15:04:51.881Z,102354.81
2022-12-27T15:07:55.813Z,102350.50
2022-12-27T15:11:19.404Z,102336.72
2022-12-27T15:14:10.329Z,102344.50
2022-12-27T15:17:04.008Z,102351.38
2022-12-27T15:20:08.639Z,102345.38
2022-12-27T15:22:40.741Z,102349.72
2022-12-27T15:25:27.121Z,102344.56
2022-12-27T15:27:54.391Z,102348.03
2022-12-27T15:30:33.021Z,102349.72
2022-12-27T15:33:02.232Z,102346.31
2022-12-27T15:35:53.629Z,102348.88
2022-12-27T15:38:35.173Z,102353.22
2022-12-27T15:41:05.012Z,102352.34
2022-12-27T15:43:57.832Z,102356.69
2022-12-27T15:46:40.886Z,102351.50
2022-12-27T15:49:28.431Z,102356.69
2022-12-27T15:52:40.143Z,102336.88
2022-12-27T15:55:21.711Z,102329.97
2022-12-27T15:58:06.722Z,102330.00
2022-12-27T16:00:34.515Z,102330.84
2022-12-27T16:03:37.290Z,102330.84
2022-12-27T16:06:07.685Z,102325.69
2022-12-27T16:08:39.656Z,102336.94
2022-12-27T16:11:12.152Z,102326.56
2022-12-27T16:13:42.850Z,102324.81
2022-12-27T16:16:33.337Z,102330.00
2022-12-27T16:19:22.173Z,102328.25
2022-12-27T16:21:48.919Z,102338.56
2022-12-27T16:24:22.317Z,102329.97
2022-12-27T16:26:57.208Z,102331.69
2022-12-27T16:29:28.258Z,102329.06
2022-12-27T16:32:18.170Z,102331.63
2022-12-27T16:34:46.764Z,102334.22
2022-12-27T16:37:27.846Z,102328.19
2022-12-27T16:40:00.267Z,102328.19
2022-12-27T16:42:56.093Z,102329.00
2022-12-27T16:45:37.688Z,102330.75
2022-12-27T16:48:38.435Z,102332.41
2022-12-27T16:51:17.259Z,102322.97
2022-12-27T16:54:02.276Z,102328.09
2022-12-27T16:56:31.895Z,102331.56
2022-12-27T16:58:58.395Z,102310.88
2022-12-27T17:01:35.747Z,102316.91
2022-12-27T17:04:03.510Z,102304.81
2022-12-27T17:06:34.456Z,102297.91
2022-12-27T17:09:10.366Z,102286.69
2022-12-27T17:11:42.949Z,102285.81
2022-12-27T17:14:16.071Z,102274.59
2022-12-27T17:16:56.242Z,102269.41
2022-12-27T17:19:50.324Z,102273.72
2022-12-27T17:22:17.907Z,102253.91
2022-12-27T17:24:46.647Z,102259.97
2022-12-27T17:27:33.284Z,102247.06
2022-12-27T17:30:52.350Z,102246.22
2022-12-27T17:33:24.762Z,102249.66
2022-12-27T17:36:09.411Z,102242.78
2022-12-27T17:39:06.325Z,102242.75
2022-12-27T17:42:19.547Z,102227.25
2022-12-27T17:45:12.522Z,102222.94
2022-12-27T17:47:51.691Z,102229.81
2022-12-27T17:50:24.119Z,102226.28
2022-12-27T17:53:27.713Z,102228.00
2022-12-27T17:56:37.170Z,102232.28
2022-12-27T17:59:11.354Z,102229.69
2022-12-27T18:01:50.219Z,102227.09
2022-12-27T18:04:26.231Z,102210.78
2022-12-27T18:06:57.630Z,102209.09
2022-12-27T18:09:31.503Z,102203.97
2022-12-27T18:11:58.015Z,102215.19
2022-12-27T18:14:24.692Z,102213.44
2022-12-27T18:16:51.309Z,102216.91
2022-12-27T18:19:20.767Z,102193.69
2022-12-27T18:22:02.017Z,102207.50
2022-12-27T18:24:31.817Z,102199.75
2022-12-27T18:27:06.698Z,102201.47
2022-12-27T18:29:34.024Z,102196.34
2022-12-27T18:32:09.032Z,102181.72
2022-12-27T18:34:45.491Z,102186.03
2022-12-27T18:37:21.744Z,102180.00
2022-12-27T18:40:01.219Z,102167.94
2022-12-27T18:42:37.622Z,102161.06
2022-12-27T18:45:15.960Z,102165.34
2022-12-27T18:47:47.386Z,102154.19
2022-12-27T18:50:23.280Z,102151.66
2022-12-27T18:53:03.594Z,102142.16
2022-12-27T18:55:32.110Z,102137.06
2022-12-27T18:58:07.854Z,102131.94
2022-12-27T19:00:48.161Z,102130.25
2022-12-27T19:03:17.639Z,102129.41
2022-12-27T19:06:00.851Z,102125.16
2022-12-27T19:08:34.098Z,102120.88
2022-12-27T19:11:01.183Z,102119.19
2022-12-27T19:13:40.308Z,102117.44
2022-12-27T19:16:07.119Z,102114.88
2022-12-27T19:18:37.011Z,102120.97
2022-12-27T19:21:05.397Z,102122.69
2022-12-27T19:23:39.788Z,102123.53
2022-12-27T19:26:17.016Z,102114.94
2022-12-27T19:28:45.254Z,102110.66
2022-12-27T19:31:18.465Z,102099.50
2022-12-27T19:33:58.591Z,102097.81
2022-12-27T19:36:31.761Z,102098.69
2022-12-27T19:38:59.199Z,102094.38
2022-12-27T19:41:27.230Z,102094.38
2022-12-27T19:43:54.427Z,102087.50
2022-12-27T19:46:27.134Z,102088.41
2022-12-27T19:51:43.643Z,102079.75
2022-12-27T19:54:16.959Z,102077.13
2022-12-27T19:56:43.545Z,102078.84
2022-12-27T19:59:20.311Z,102072.81
2022-12-27T20:01:47.320Z,102054.72
2022-12-27T20:04:15.832Z,102059.91
2022-12-27T20:06:43.717Z,102065.03
2022-12-27T20:09:14.282Z,102052.06
2022-12-27T20:11:41.244Z,102054.63
2022-12-27T20:14:08.069Z,102043.44
2022-12-27T20:16:34.532Z,102036.53
2022-12-27T20:19:02.470Z,102034.78
2022-12-27T20:21:29.335Z,102037.38
2022-12-27T20:23:55.763Z,102029.63
2022-12-27T20:26:25.088Z,102026.19
2022-12-27T20:28:52.583Z,102025.34
2022-12-27T20:31:21.076Z,102032.19
2022-12-27T20:33:52.537Z,102024.47
2022-12-27T20:36:19.076Z,102017.53
2022-12-27T20:38:45.492Z,102009.78
2022-12-27T20:41:14.657Z,102003.78
2022-12-27T20:43:41.741Z,102008.06
2022-12-27T20:46:17.421Z,102002.00
2022-12-27T20:48:45.832Z,102003.69
2022-12-27T20:51:17.648Z,102013.19
2022-12-27T20:53:45.065Z,101999.38
2022-12-27T20:56:12.958Z,102001.94
2022-12-27T20:58:39.855Z,102002.78
2022-12-27T21:01:15.265Z,102001.91
2022-12-27T21:03:42.599Z,101993.31
2022-12-27T21:06:09.875Z,101982.97
2022-12-27T21:08:44.576Z,101982.06
2022-12-27T21:11:18.848Z,101982.97
2022-12-27T21:13:46.827Z,101982.97
2022-12-27T21:16:15.870Z,101978.63
2022-12-27T21:18:42.695Z,101970.03
2022-12-27T21:21:12.386Z,101969.16
2022-12-27T21:23:39.522Z,101966.56
2022-12-27T21:26:09.055Z,101961.41
2022-12-27T21:28:36.575Z,101966.53
2022-12-27T21:31:04.157Z,101965.63
2022-12-27T21:33:31.025Z,101955.31
2022-12-27T21:36:03.960Z,101957.06
2022-12-27T21:38:30.765Z,101960.50
2022-12-27T21:41:11.034Z,101944.94
2022-12-27T21:43:37.612Z,101931.16
2022-12-27T21:46:06.985Z,101936.34
2022-12-27T21:48:34.174Z,101927.69
2022-12-27T21:51:05.493Z,101932.88
2022-12-27T21:53:31.869Z,101933.75
2022-12-27T21:55:58.639Z,101922.53
2022-12-27T21:58:25.031Z,101907.06
2022-12-27T22:00:56.070Z,101908.81
2022-12-27T22:03:24.378Z,101909.59
2022-12-27T22:05:50.871Z,101908.75
2022-12-27T22:08:17.318Z,101903.59
2022-12-27T22:10:45.343Z,101903.59
2022-12-27T22:13:11.775Z,101894.97
2022-12-27T22:15:38.192Z,101888.94
2022-12-27T22:18:04.842Z,101888.94
2022-12-27T22:20:31.226Z,101880.38
2022-12-27T22:22:57.602Z,101872.56
2022-12-27T22:25:24.153Z,101876.06
2022-12-27T22:27:50.547Z,101882.97
2022-12-27T22:30:17.099Z,101875.19
2022-12-27T22:32:43.548Z,101857.97
2022-12-27T22:35:09.927Z,101858.88
2022-12-27T22:37:36.375Z,101851.16
2022-12-27T22:40:03.141Z,101846.03
2022-12-27T22:42:30.071Z,101844.34
2022-12-27T22:44:56.469Z,101841.78
2022-12-27T22:47:27.704Z,101851.25
2022-12-27T22:49:54.715Z,101849.56
2022-12-27T22:52:21.118Z,101842.69
2022-12-27T22:55:05.281Z,101837.53
2022-12-27T22:57:33.706Z,101828.13
2022-12-27T23:00:00.103Z,101834.16
2022-12-27T23:02:26.558Z,101820.44
2022-12-27T23:04:53.066Z,101808.41
2022-12-27T23:07:20.133Z,101790.31
2022-12-27T23:09:46.640Z,101783.47
2022-12-27T23:12:13.435Z,101780.91
2022-12-27T23:14:40.632Z,101779.19
2022-12-27T23:17:07.055Z,101769.75
2022-12-27T23:19:33.439Z,101765.47
2022-12-27T23:21:59.838Z,101749.06
2022-12-27T23:24:26.334Z,101745.66
2022-12-27T23:26:52.843Z,101746.50
2022-12-27T23:29:19.258Z,101752.56
2022-12-27T23:31:54.391Z,101746.53
2022-12-27T23:34:27.768Z,101737.00
2022-12-27T23:36:55.051Z,101736.16
2022-12-27T23:39:21.463Z,101743.06
2022-12-27T23:41:47.876Z,101729.25
2022-12-27T23:44:14.292Z,101730.97
2022-12-27T23:46:40.831Z,101730.09
2022-12-27T23:49:07.285Z,101728.34
2022-12-27T23:51:33.713Z,101720.59
2022-12-27T23:54:00.138Z,101708.53
2022-12-27T23:56:32.072Z,101692.22
2022-12-27T23:59:00.704Z,101683.59
